sensor_id;sensor_type;location;lat;lon;timestamp;P1;durP1;ratioP1;P2;durP2;ratioP2
32082;SDS011;18597;48.328;7.932;2023-09-07T00:01:30;7.33;;;6.63;;
32082;SDS011;18597;48.328;7.932;2023-09-07T00:03:56;9.07;;;7.03;;
32082;SDS011;18597;48.328;7.932;2023-09-07T00:06:22;6.00;;;5.60;;
32082;SDS011;18597;48.328;7.932;2023-09-07T00:08:48;6.23;;;5.73;;
32082;SDS011;18597;48.328;7.932;2023-09-07T00:11:14;10.13;;;7.53;;
32082;SDS011;18597;48.328;7.932;2023-09-07T00:13:39;9.47;;;7.10;;
32082;SDS011;18597;48.328;7.932;2023-09-07T00:16:05;6.80;;;6.20;;
32082;SDS011;18597;48.328;7.932;2023-09-07T00:18:32;6.37;;;5.77;;
32082;SDS011;18597;48.328;7.932;2023-09-07T00:20:59;7.00;;;6.40;;
32082;SDS011;18597;48.328;7.932;2023-09-07T00:23:25;7.33;;;6.80;;
32082;SDS011;18597;48.328;7.932;2023-09-07T00:25:51;7.70;;;7.00;;
32082;SDS011;18597;48.328;7.932;2023-09-07T00:28:17;6.37;;;5.87;;
32082;SDS011;18597;48.328;7.932;2023-09-07T00:30:43;10.30;;;6.83;;
32082;SDS011;18597;48.328;7.932;2023-09-07T00:33:09;8.10;;;7.40;;
32082;SDS011;18597;48.328;7.932;2023-09-07T00:35:35;9.10;;;8.17;;
32082;SDS011;18597;48.328;7.932;2023-09-07T00:38:02;8.27;;;7.47;;
32082;SDS011;18597;48.328;7.932;2023-09-07T00:40:28;8.87;;;6.43;;
32082;SDS011;18597;48.328;7.932;2023-09-07T00:42:55;8.63;;;7.80;;
32082;SDS011;18597;48.328;7.932;2023-09-07T00:45:20;7.63;;;6.90;;
32082;SDS011;18597;48.328;7.932;2023-09-07T00:47:47;11.20;;;8.33;;
32082;SDS011;18597;48.328;7.932;2023-09-07T00:50:13;14.93;;;8.20;;
32082;SDS011;18597;48.328;7.932;2023-09-07T00:52:40;8.50;;;7.17;;
32082;SDS011;18597;48.328;7.932;2023-09-07T00:55:08;11.03;;;6.83;;
32082;SDS011;18597;48.328;7.932;2023-09-07T00:57:34;9.17;;;7.27;;
32082;SDS011;18597;48.328;7.932;2023-09-07T01:00:02;8.10;;;7.30;;
32082;SDS011;18597;48.328;7.932;2023-09-07T01:02:31;9.63;;;6.23;;
32082;SDS011;18597;48.328;7.932;2023-09-07T01:04:56;8.00;;;6.77;;
32082;SDS011;18597;48.328;7.932;2023-09-07T01:07:24;19.93;;;8.23;;
32082;SDS011;18597;48.328;7.932;2023-09-07T01:10:11;8.93;;;7.30;;
32082;SDS011;18597;48.328;7.932;2023-09-07T01:12:38;7.20;;;6.80;;
32082;SDS011;18597;48.328;7.932;2023-09-07T01:15:06;7.83;;;7.23;;
32082;SDS011;18597;48.328;7.932;2023-09-07T01:17:32;7.40;;;6.63;;
32082;SDS011;18597;48.328;7.932;2023-09-07T01:19:59;8.00;;;7.20;;
32082;SDS011;18597;48.328;7.932;2023-09-07T01:22:31;9.63;;;6.30;;
32082;SDS011;18597;48.328;7.932;2023-09-07T01:24:58;7.83;;;7.10;;
32082;SDS011;18597;48.328;7.932;2023-09-07T01:27:25;6.50;;;6.07;;
32082;SDS011;18597;48.328;7.932;2023-09-07T01:29:51;7.00;;;6.40;;
32082;SDS011;18597;48.328;7.932;2023-09-07T01:32:17;9.30;;;8.13;;
32082;SDS011;18597;48.328;7.932;2023-09-07T01:34:43;10.53;;;7.27;;
32082;SDS011;18597;48.328;7.932;2023-09-07T01:37:08;13.90;;;7.20;;
32082;SDS011;18597;48.328;7.932;2023-09-07T01:39:34;9.10;;;7.50;;
32082;SDS011;18597;48.328;7.932;2023-09-07T01:42:00;7.67;;;6.90;;
32082;SDS011;18597;48.328;7.932;2023-09-07T01:44:26;7.77;;;7.17;;
32082;SDS011;18597;48.328;7.932;2023-09-07T01:46:52;8.33;;;7.53;;
32082;SDS011;18597;48.328;7.932;2023-09-07T01:49:18;9.67;;;7.73;;
32082;SDS011;18597;48.328;7.932;2023-09-07T01:51:44;11.80;;;8.63;;
32082;SDS011;18597;48.328;7.932;2023-09-07T01:54:10;12.03;;;7.60;;
32082;SDS011;18597;48.328;7.932;2023-09-07T01:56:35;9.97;;;6.70;;
32082;SDS011;18597;48.328;7.932;2023-09-07T01:59:02;8.87;;;7.40;;
32082;SDS011;18597;48.328;7.932;2023-09-07T02:01:29;9.00;;;7.87;;
32082;SDS011;18597;48.328;7.932;2023-09-07T02:03:56;10.13;;;7.70;;
32082;SDS011;18597;48.328;7.932;2023-09-07T02:06:22;10.20;;;7.70;;
32082;SDS011;18597;48.328;7.932;2023-09-07T02:08:48;7.60;;;7.10;;
32082;SDS011;18597;48.328;7.932;2023-09-07T02:11:14;11.43;;;7.50;;
32082;SDS011;18597;48.328;7.932;2023-09-07T02:13:41;7.70;;;6.97;;
32082;SDS011;18597;48.328;7.932;2023-09-07T02:16:08;10.53;;;7.87;;
32082;SDS011;18597;48.328;7.932;2023-09-07T02:18:35;7.87;;;7.20;;
32082;SDS011;18597;48.328;7.932;2023-09-07T02:21:03;7.93;;;7.23;;
32082;SDS011;18597;48.328;7.932;2023-09-07T02:23:29;11.13;;;7.60;;
32082;SDS011;18597;48.328;7.932;2023-09-07T02:25:57;7.87;;;7.17;;
32082;SDS011;18597;48.328;7.932;2023-09-07T02:28:24;10.40;;;7.13;;
32082;SDS011;18597;48.328;7.932;2023-09-07T02:30:51;7.70;;;6.90;;
32082;SDS011;18597;48.328;7.932;2023-09-07T02:33:17;8.97;;;8.10;;
32082;SDS011;18597;48.328;7.932;2023-09-07T02:35:43;7.90;;;7.10;;
32082;SDS011;18597;48.328;7.932;2023-09-07T02:38:09;11.50;;;7.57;;
32082;SDS011;18597;48.328;7.932;2023-09-07T02:40:42;8.20;;;7.40;;
32082;SDS011;18597;48.328;7.932;2023-09-07T02:43:09;14.07;;;8.13;;
32082;SDS011;18597;48.328;7.932;2023-09-07T02:45:36;14.47;;;7.30;;
32082;SDS011;18597;48.328;7.932;2023-09-07T02:48:02;7.40;;;6.90;;
32082;SDS011;18597;48.328;7.932;2023-09-07T02:50:29;8.33;;;7.20;;
32082;SDS011;18597;48.328;7.932;2023-09-07T02:52:58;13.87;;;8.70;;
32082;SDS011;18597;48.328;7.932;2023-09-07T02:55:25;7.60;;;7.03;;
32082;SDS011;18597;48.328;7.932;2023-09-07T02:57:51;7.70;;;7.07;;
32082;SDS011;18597;48.328;7.932;2023-09-07T03:00:18;10.80;;;8.13;;
32082;SDS011;18597;48.328;7.932;2023-09-07T03:02:44;7.77;;;7.20;;
32082;SDS011;18597;48.328;7.932;2023-09-07T03:05:10;9.33;;;8.43;;
32082;SDS011;18597;48.328;7.932;2023-09-07T03:07:36;8.90;;;6.90;;
32082;SDS011;18597;48.328;7.932;2023-09-07T03:10:04;10.03;;;7.30;;
32082;SDS011;18597;48.328;7.932;2023-09-07T03:12:30;9.60;;;8.40;;
32082;SDS011;18597;48.328;7.932;2023-09-07T03:14:56;8.30;;;7.50;;
32082;SDS011;18597;48.328;7.932;2023-09-07T03:17:22;8.50;;;7.70;;
32082;SDS011;18597;48.328;7.932;2023-09-07T03:19:47;7.87;;;7.17;;
32082;SDS011;18597;48.328;7.932;2023-09-07T03:22:13;8.37;;;7.53;;
32082;SDS011;18597;48.328;7.932;2023-09-07T03:24:40;10.70;;;7.17;;
32082;SDS011;18597;48.328;7.932;2023-09-07T03:27:05;8.57;;;7.73;;
32082;SDS011;18597;48.328;7.932;2023-09-07T03:29:31;10.23;;;8.00;;
32082;SDS011;18597;48.328;7.932;2023-09-07T03:31:59;7.87;;;7.17;;
32082;SDS011;18597;48.328;7.932;2023-09-07T03:34:25;9.70;;;7.37;;
32082;SDS011;18597;48.328;7.932;2023-09-07T03:36:51;14.43;;;8.73;;
32082;SDS011;18597;48.328;7.932;2023-09-07T03:39:17;8.30;;;7.63;;
32082;SDS011;18597;48.328;7.932;2023-09-07T03:41:43;8.73;;;7.93;;
32082;SDS011;18597;48.328;7.932;2023-09-07T03:44:10;7.73;;;7.13;;
32082;SDS011;18597;48.328;7.932;2023-09-07T03:46:36;7.93;;;7.23;;
32082;SDS011;18597;48.328;7.932;2023-09-07T03:49:02;13.40;;;7.60;;
32082;SDS011;18597;48.328;7.932;2023-09-07T03:51:28;8.80;;;7.53;;
32082;SDS011;18597;48.328;7.932;2023-09-07T03:53:53;7.93;;;7.30;;
32082;SDS011;18597;48.328;7.932;2023-09-07T03:56:19;7.77;;;6.97;;
32082;SDS011;18597;48.328;7.932;2023-09-07T03:58:45;8.47;;;7.50;;
32082;SDS011;18597;48.328;7.932;2023-09-07T04:01:12;8.60;;;7.80;;
32082;SDS011;18597;48.328;7.932;2023-09-07T04:03:39;7.00;;;6.50;;
32082;SDS011;18597;48.328;7.932;2023-09-07T04:06:07;9.00;;;8.10;;
32082;SDS011;18597;48.328;7.932;2023-09-07T04:08:33;8.90;;;8.10;;
32082;SDS011;18597;48.328;7.932;2023-09-07T04:11:02;11.40;;;7.13;;
32082;SDS011;18597;48.328;7.932;2023-09-07T04:13:30;7.20;;;6.70;;
32082;SDS011;18597;48.328;7.932;2023-09-07T04:15:56;8.53;;;7.73;;
32082;SDS011;18597;48.328;7.932;2023-09-07T04:18:22;12.83;;;7.53;;
32082;SDS011;18597;48.328;7.932;2023-09-07T04:20:48;7.67;;;7.07;;
32082;SDS011;18597;48.328;7.932;2023-09-07T04:23:14;13.23;;;6.87;;
32082;SDS011;18597;48.328;7.932;2023-09-07T04:25:40;8.50;;;6.47;;
32082;SDS011;18597;48.328;7.932;2023-09-07T04:28:06;13.27;;;8.00;;
32082;SDS011;18597;48.328;7.932;2023-09-07T04:30:37;9.30;;;7.87;;
32082;SDS011;18597;48.328;7.932;2023-09-07T04:33:03;7.20;;;6.70;;
32082;SDS011;18597;48.328;7.932;2023-09-07T04:35:29;7.57;;;6.80;;
32082;SDS011;18597;48.328;7.932;2023-09-07T04:37:56;10.20;;;8.57;;
32082;SDS011;18597;48.328;7.932;2023-09-07T04:40:22;9.77;;;6.77;;
32082;SDS011;18597;48.328;7.932;2023-09-07T04:42:49;9.03;;;8.13;;
32082;SDS011;18597;48.328;7.932;2023-09-07T04:45:15;9.90;;;8.20;;
32082;SDS011;18597;48.328;7.932;2023-09-07T04:47:42;12.07;;;9.17;;
32082;SDS011;18597;48.328;7.932;2023-09-07T04:50:08;13.37;;;8.63;;
32082;SDS011;18597;48.328;7.932;2023-09-07T04:52:35;8.63;;;7.83;;
32082;SDS011;18597;48.328;7.932;2023-09-07T04:55:01;10.67;;;7.30;;
32082;SDS011;18597;48.328;7.932;2023-09-07T04:57:27;9.37;;;8.30;;
32082;SDS011;18597;48.328;7.932;2023-09-07T04:59:53;9.03;;;7.43;;
32082;SDS011;18597;48.328;7.932;2023-09-07T05:02:19;8.67;;;7.20;;
32082;SDS011;18597;48.328;7.932;2023-09-07T05:04:45;9.07;;;8.27;;
32082;SDS011;18597;48.328;7.932;2023-09-07T05:07:11;8.33;;;7.60;;
32082;SDS011;18597;48.328;7.932;2023-09-07T05:09:37;8.70;;;7.80;;
32082;SDS011;18597;48.328;7.932;2023-09-07T05:12:03;12.30;;;7.20;;
32082;SDS011;18597;48.328;7.932;2023-09-07T05:14:29;7.77;;;7.17;;
32082;SDS011;18597;48.328;7.932;2023-09-07T05:16:55;7.63;;;7.03;;
32082;SDS011;18597;48.328;7.932;2023-09-07T05:19:21;8.10;;;7.30;;
32082;SDS011;18597;48.328;7.932;2023-09-07T05:21:48;8.57;;;7.70;;
32082;SDS011;18597;48.328;7.932;2023-09-07T05:24:14;7.60;;;6.90;;
32082;SDS011;18597;48.328;7.932;2023-09-07T05:26:41;8.80;;;7.80;;
32082;SDS011;18597;48.328;7.932;2023-09-07T05:29:08;9.20;;;8.30;;
32082;SDS011;18597;48.328;7.932;2023-09-07T05:31:35;7.47;;;6.97;;
32082;SDS011;18597;48.328;7.932;2023-09-07T05:34:00;14.87;;;9.10;;
32082;SDS011;18597;48.328;7.932;2023-09-07T05:36:26;7.77;;;7.00;;
32082;SDS011;18597;48.328;7.932;2023-09-07T05:38:52;8.80;;;7.90;;
32082;SDS011;18597;48.328;7.932;2023-09-07T05:41:18;8.53;;;7.70;;
32082;SDS011;18597;48.328;7.932;2023-09-07T05:43:44;8.90;;;7.47;;
32082;SDS011;18597;48.328;7.932;2023-09-07T05:46:10;8.80;;;7.30;;
32082;SDS011;18597;48.328;7.932;2023-09-07T05:48:36;7.77;;;7.00;;
32082;SDS011;18597;48.328;7.932;2023-09-07T05:51:01;9.07;;;8.10;;
32082;SDS011;18597;48.328;7.932;2023-09-07T05:53:28;7.23;;;6.63;;
32082;SDS011;18597;48.328;7.932;2023-09-07T05:55:54;8.40;;;7.60;;
32082;SDS011;18597;48.328;7.932;2023-09-07T05:58:20;7.53;;;6.93;;
32082;SDS011;18597;48.328;7.932;2023-09-07T06:00:46;8.60;;;6.50;;
32082;SDS011;18597;48.328;7.932;2023-09-07T06:03:12;8.10;;;7.40;;
32082;SDS011;18597;48.328;7.932;2023-09-07T06:05:37;9.17;;;7.00;;
32082;SDS011;18597;48.328;7.932;2023-09-07T06:08:04;10.60;;;7.37;;
32082;SDS011;18597;48.328;7.932;2023-09-07T06:10:32;7.43;;;5.73;;
32082;SDS011;18597;48.328;7.932;2023-09-07T06:12:58;14.23;;;5.53;;
32082;SDS011;18597;48.328;7.932;2023-09-07T06:15:25;5.53;;;5.03;;
32082;SDS011;18597;48.328;7.932;2023-09-07T06:17:52;11.97;;;5.17;;
32082;SDS011;18597;48.328;7.932;2023-09-07T06:20:19;5.10;;;4.00;;
32082;SDS011;18597;48.328;7.932;2023-09-07T06:22:45;4.57;;;4.17;;
32082;SDS011;18597;48.328;7.932;2023-09-07T06:25:11;4.93;;;4.53;;
32082;SDS011;18597;48.328;7.932;2023-09-07T06:27:37;5.90;;;4.87;;
32082;SDS011;18597;48.328;7.932;2023-09-07T06:30:05;4.00;;;3.80;;
32082;SDS011;18597;48.328;7.932;2023-09-07T06:32:31;4.97;;;4.57;;
32082;SDS011;18597;48.328;7.932;2023-09-07T06:34:58;4.93;;;4.00;;
32082;SDS011;18597;48.328;7.932;2023-09-07T06:37:23;3.90;;;3.70;;
32082;SDS011;18597;48.328;7.932;2023-09-07T06:39:50;4.30;;;4.00;;
32082;SDS011;18597;48.328;7.932;2023-09-07T06:42:17;4.20;;;3.90;;
32082;SDS011;18597;48.328;7.932;2023-09-07T06:44:43;4.23;;;3.77;;
32082;SDS011;18597;48.328;7.932;2023-09-07T06:47:10;5.17;;;3.47;;
32082;SDS011;18597;48.328;7.932;2023-09-07T06:49:37;3.70;;;3.60;;
32082;SDS011;18597;48.328;7.932;2023-09-07T06:52:04;3.93;;;3.73;;
32082;SDS011;18597;48.328;7.932;2023-09-07T06:54:30;3.65;;;3.55;;
32082;SDS011;18597;48.328;7.932;2023-09-07T06:56:56;4.57;;;3.60;;
32082;SDS011;18597;48.328;7.932;2023-09-07T06:59:21;3.17;;;3.17;;
32082;SDS011;18597;48.328;7.932;2023-09-07T07:01:47;2.85;;;2.75;;
32082;SDS011;18597;48.328;7.932;2023-09-07T07:04:13;3.50;;;3.40;;
32082;SDS011;18597;48.328;7.932;2023-09-07T07:06:39;3.03;;;2.55;;
32082;SDS011;18597;48.328;7.932;2023-09-07T07:09:05;2.92;;;2.65;;
32082;SDS011;18597;48.328;7.932;2023-09-07T07:11:31;3.05;;;2.83;;
32082;SDS011;18597;48.328;7.932;2023-09-07T07:13:57;3.75;;;2.95;;
32082;SDS011;18597;48.328;7.932;2023-09-07T07:16:22;3.33;;;3.05;;
32082;SDS011;18597;48.328;7.932;2023-09-07T07:18:48;2.60;;;2.50;;
32082;SDS011;18597;48.328;7.932;2023-09-07T07:21:14;3.00;;;2.67;;
32082;SDS011;18597;48.328;7.932;2023-09-07T07:23:40;3.05;;;2.50;;
32082;SDS011;18597;48.328;7.932;2023-09-07T07:26:06;2.10;;;2.10;;
32082;SDS011;18597;48.328;7.932;2023-09-07T07:28:33;3.67;;;2.47;;
32082;SDS011;18597;48.328;7.932;2023-09-07T07:31:06;3.65;;;3.55;;
32082;SDS011;18597;48.328;7.932;2023-09-07T07:33:34;3.35;;;3.15;;
32082;SDS011;18597;48.328;7.932;2023-09-07T07:36:00;3.78;;;3.45;;
32082;SDS011;18597;48.328;7.932;2023-09-07T07:38:26;4.40;;;4.18;;
32082;SDS011;18597;48.328;7.932;2023-09-07T07:40:52;4.47;;;4.38;;
32082;SDS011;18597;48.328;7.932;2023-09-07T07:43:18;5.28;;;3.97;;
32082;SDS011;18597;48.328;7.932;2023-09-07T07:45:44;4.22;;;4.13;;
32082;SDS011;18597;48.328;7.932;2023-09-07T07:48:10;4.30;;;4.00;;
32082;SDS011;18597;48.328;7.932;2023-09-07T07:50:38;4.75;;;4.35;;
32082;SDS011;18597;48.328;7.932;2023-09-07T07:53:04;5.03;;;4.88;;
32082;SDS011;18597;48.328;7.932;2023-09-07T07:55:36;7.18;;;4.68;;
32082;SDS011;18597;48.328;7.932;2023-09-07T07:58:05;4.78;;;4.68;;
32082;SDS011;18597;48.328;7.932;2023-09-07T08:00:33;5.03;;;4.70;;
32082;SDS011;18597;48.328;7.932;2023-09-07T08:03:00;5.50;;;5.10;;
32082;SDS011;18597;48.328;7.932;2023-09-07T08:05:28;5.65;;;4.93;;
32082;SDS011;18597;48.328;7.932;2023-09-07T08:08:06;4.70;;;4.25;;
32082;SDS011;18597;48.328;7.932;2023-09-07T08:10:34;4.22;;;4.07;;
32082;SDS011;18597;48.328;7.932;2023-09-07T08:13:02;4.45;;;4.25;;
32082;SDS011;18597;48.328;7.932;2023-09-07T08:15:29;4.88;;;4.47;;
32082;SDS011;18597;48.328;7.932;2023-09-07T08:17:56;4.60;;;4.20;;
32082;SDS011;18597;48.328;7.932;2023-09-07T08:20:24;4.93;;;4.63;;
32082;SDS011;18597;48.328;7.932;2023-09-07T08:22:51;3.80;;;3.67;;
32082;SDS011;18597;48.328;7.932;2023-09-07T08:25:17;3.63;;;3.53;;
32082;SDS011;18597;48.328;7.932;2023-09-07T08:27:43;5.03;;;4.82;;
32082;SDS011;18597;48.328;7.932;2023-09-07T08:30:12;5.07;;;4.68;;
32082;SDS011;18597;48.328;7.932;2023-09-07T08:32:41;5.03;;;4.63;;
32082;SDS011;18597;48.328;7.932;2023-09-07T08:35:09;5.60;;;4.60;;
32082;SDS011;18597;48.328;7.932;2023-09-07T08:37:38;6.68;;;5.38;;
32082;SDS011;18597;48.328;7.932;2023-09-07T08:40:05;6.10;;;5.60;;
32082;SDS011;18597;48.328;7.932;2023-09-07T08:42:35;7.50;;;6.00;;
32082;SDS011;18597;48.328;7.932;2023-09-07T08:45:02;6.20;;;5.60;;
32082;SDS011;18597;48.328;7.932;2023-09-07T08:47:32;6.13;;;5.73;;
32082;SDS011;18597;48.328;7.932;2023-09-07T08:50:01;7.57;;;6.80;;
32082;SDS011;18597;48.328;7.932;2023-09-07T08:52:29;9.73;;;7.00;;
32082;SDS011;18597;48.328;7.932;2023-09-07T08:54:55;8.07;;;7.03;;
32082;SDS011;18597;48.328;7.932;2023-09-07T08:57:23;6.60;;;6.00;;
32082;SDS011;18597;48.328;7.932;2023-09-07T08:59:52;6.93;;;6.30;;
32082;SDS011;18597;48.328;7.932;2023-09-07T09:02:18;10.57;;;6.80;;
32082;SDS011;18597;48.328;7.932;2023-09-07T09:04:44;8.00;;;7.17;;
32082;SDS011;18597;48.328;7.932;2023-09-07T09:07:10;8.20;;;7.60;;
32082;SDS011;18597;48.328;7.932;2023-09-07T09:09:35;8.50;;;6.50;;
32082;SDS011;18597;48.328;7.932;2023-09-07T09:12:07;8.13;;;7.40;;
32082;SDS011;18597;48.328;7.932;2023-09-07T09:14:35;7.83;;;7.20;;
32082;SDS011;18597;48.328;7.932;2023-09-07T09:17:01;6.80;;;6.30;;
32082;SDS011;18597;48.328;7.932;2023-09-07T09:19:31;8.47;;;7.67;;
32082;SDS011;18597;48.328;7.932;2023-09-07T09:21:58;11.40;;;7.43;;
32082;SDS011;18597;48.328;7.932;2023-09-07T09:24:24;12.30;;;7.63;;
32082;SDS011;18597;48.328;7.932;2023-09-07T09:26:50;8.27;;;7.50;;
32082;SDS011;18597;48.328;7.932;2023-09-07T09:29:16;8.13;;;7.33;;
32082;SDS011;18597;48.328;7.932;2023-09-07T09:31:46;10.10;;;7.67;;
32082;SDS011;18597;48.328;7.932;2023-09-07T09:34:12;7.77;;;7.00;;
32082;SDS011;18597;48.328;7.932;2023-09-07T09:36:40;13.03;;;8.40;;
32082;SDS011;18597;48.328;7.932;2023-09-07T09:39:08;7.93;;;7.33;;
32082;SDS011;18597;48.328;7.932;2023-09-07T09:41:34;7.80;;;6.30;;
32082;SDS011;18597;48.328;7.932;2023-09-07T09:44:03;6.70;;;6.30;;
32082;SDS011;18597;48.328;7.932;2023-09-07T09:46:29;7.47;;;6.77;;
32082;SDS011;18597;48.328;7.932;2023-09-07T09:48:57;9.73;;;6.50;;
32082;SDS011;18597;48.328;7.932;2023-09-07T09:51:24;7.33;;;6.53;;
32082;SDS011;18597;48.328;7.932;2023-09-07T09:53:50;7.60;;;6.87;;
32082;SDS011;18597;48.328;7.932;2023-09-07T09:56:18;7.07;;;6.40;;
32082;SDS011;18597;48.328;7.932;2023-09-07T09:58:45;6.70;;;6.17;;
32082;SDS011;18597;48.328;7.932;2023-09-07T10:01:11;7.00;;;6.47;;
32082;SDS011;18597;48.328;7.932;2023-09-07T10:03:41;7.17;;;6.70;;
32082;SDS011;18597;48.328;7.932;2023-09-07T10:06:11;6.47;;;5.93;;
32082;SDS011;18597;48.328;7.932;2023-09-07T10:08:55;6.73;;;6.10;;
32082;SDS011;18597;48.328;7.932;2023-09-07T10:11:32;9.73;;;5.80;;
32082;SDS011;18597;48.328;7.932;2023-09-07T10:14:00;5.90;;;5.50;;
32082;SDS011;18597;48.328;7.932;2023-09-07T10:16:28;6.37;;;5.87;;
32082;SDS011;18597;48.328;7.932;2023-09-07T10:19:22;6.20;;;5.70;;
32082;SDS011;18597;48.328;7.932;2023-09-07T10:21:50;10.60;;;8.90;;
32082;SDS011;18597;48.328;7.932;2023-09-07T10:24:33;8.27;;;5.93;;
32082;SDS011;18597;48.328;7.932;2023-09-07T10:27:02;6.87;;;6.20;;
32082;SDS011;18597;48.328;7.932;2023-09-07T10:29:46;7.00;;;6.40;;
32082;SDS011;18597;48.328;7.932;2023-09-07T10:32:17;5.73;;;5.40;;
32082;SDS011;18597;48.328;7.932;2023-09-07T10:34:43;8.47;;;6.90;;
32082;SDS011;18597;48.328;7.932;2023-09-07T10:37:10;6.40;;;5.93;;
32082;SDS011;18597;48.328;7.932;2023-09-07T10:39:38;6.60;;;6.00;;
32082;SDS011;18597;48.328;7.932;2023-09-07T10:42:08;7.30;;;6.60;;
32082;SDS011;18597;48.328;7.932;2023-09-07T10:44:49;6.00;;;5.60;;
32082;SDS011;18597;48.328;7.932;2023-09-07T10:47:15;5.87;;;5.53;;
32082;SDS011;18597;48.328;7.932;2023-09-07T10:49:42;6.87;;;6.23;;
32082;SDS011;18597;48.328;7.932;2023-09-07T10:52:07;6.27;;;5.27;;
32082;SDS011;18597;48.328;7.932;2023-09-07T10:54:33;6.10;;;5.67;;
32082;SDS011;18597;48.328;7.932;2023-09-07T10:57:07;6.20;;;5.67;;
32082;SDS011;18597;48.328;7.932;2023-09-07T10:59:35;5.13;;;4.93;;
32082;SDS011;18597;48.328;7.932;2023-09-07T11:02:04;6.20;;;5.70;;
32082;SDS011;18597;48.328;7.932;2023-09-07T11:04:31;5.83;;;5.40;;
32082;SDS011;18597;48.328;7.932;2023-09-07T11:06:57;4.63;;;4.43;;
32082;SDS011;18597;48.328;7.932;2023-09-07T11:09:23;6.13;;;5.60;;
32082;SDS011;18597;48.328;7.932;2023-09-07T11:11:49;5.37;;;5.07;;
32082;SDS011;18597;48.328;7.932;2023-09-07T11:14:15;6.73;;;6.10;;
32082;SDS011;18597;48.328;7.932;2023-09-07T11:16:41;11.23;;;5.33;;
32082;SDS011;18597;48.328;7.932;2023-09-07T11:19:08;5.00;;;4.77;;
32082;SDS011;18597;48.328;7.932;2023-09-07T11:21:34;5.57;;;5.07;;
32082;SDS011;18597;48.328;7.932;2023-09-07T11:24:01;5.70;;;5.40;;
32082;SDS011;18597;48.328;7.932;2023-09-07T11:26:39;9.87;;;5.93;;
32082;SDS011;18597;48.328;7.932;2023-09-07T11:29:13;6.00;;;5.60;;
32082;SDS011;18597;48.328;7.932;2023-09-07T11:31:40;10.03;;;4.90;;
32082;SDS011;18597;48.328;7.932;2023-09-07T11:34:14;6.47;;;5.97;;
32082;SDS011;18597;48.328;7.932;2023-09-07T11:36:41;5.50;;;5.10;;
32082;SDS011;18597;48.328;7.932;2023-09-07T11:39:08;4.77;;;4.47;;
32082;SDS011;18597;48.328;7.932;2023-09-07T11:41:39;7.17;;;6.53;;
32082;SDS011;18597;48.328;7.932;2023-09-07T11:44:07;4.80;;;4.60;;
32082;SDS011;18597;48.328;7.932;2023-09-07T11:46:33;5.53;;;5.13;;
32082;SDS011;18597;48.328;7.932;2023-09-07T11:49:00;5.10;;;4.87;;
32082;SDS011;18597;48.328;7.932;2023-09-07T11:51:26;7.83;;;4.83;;
32082;SDS011;18597;48.328;7.932;2023-09-07T11:53:51;6.53;;;6.13;;
32082;SDS011;18597;48.328;7.932;2023-09-07T11:56:17;6.53;;;5.90;;
32082;SDS011;18597;48.328;7.932;2023-09-07T11:58:43;5.20;;;4.83;;
32082;SDS011;18597;48.328;7.932;2023-09-07T12:01:09;5.03;;;4.67;;
32082;SDS011;18597;48.328;7.932;2023-09-07T12:03:35;4.87;;;4.57;;
32082;SDS011;18597;48.328;7.932;2023-09-07T12:06:01;5.40;;;5.03;;
32082;SDS011;18597;48.328;7.932;2023-09-07T12:08:27;5.13;;;4.83;;
32082;SDS011;18597;48.328;7.932;2023-09-07T12:10:53;12.83;;;5.80;;
32082;SDS011;18597;48.328;7.932;2023-09-07T12:13:19;4.93;;;4.57;;
32082;SDS011;18597;48.328;7.932;2023-09-07T12:15:45;5.60;;;5.13;;
32082;SDS011;18597;48.328;7.932;2023-09-07T12:18:10;4.93;;;4.50;;
32082;SDS011;18597;48.328;7.932;2023-09-07T12:20:37;5.87;;;5.50;;
32082;SDS011;18597;48.328;7.932;2023-09-07T12:23:02;5.37;;;4.97;;
32082;SDS011;18597;48.328;7.932;2023-09-07T12:25:29;6.30;;;5.80;;
32082;SDS011;18597;48.328;7.932;2023-09-07T12:27:55;8.60;;;4.87;;
32082;SDS011;18597;48.328;7.932;2023-09-07T12:30:21;4.60;;;4.43;;
32082;SDS011;18597;48.328;7.932;2023-09-07T12:32:48;4.90;;;4.70;;
32082;SDS011;18597;48.328;7.932;2023-09-07T12:35:15;4.70;;;4.33;;
32082;SDS011;18597;48.328;7.932;2023-09-07T12:37:41;5.27;;;4.87;;
32082;SDS011;18597;48.328;7.932;2023-09-07T12:40:07;7.40;;;4.83;;
32082;SDS011;18597;48.328;7.932;2023-09-07T12:42:38;5.63;;;5.33;;
32082;SDS011;18597;48.328;7.932;2023-09-07T12:45:06;5.40;;;4.93;;
32082;SDS011;18597;48.328;7.932;2023-09-07T12:47:35;4.90;;;4.60;;
32082;SDS011;18597;48.328;7.932;2023-09-07T12:50:01;3.60;;;3.50;;
32082;SDS011;18597;48.328;7.932;2023-09-07T12:52:28;4.90;;;4.60;;
32082;SDS011;18597;48.328;7.932;2023-09-07T12:54:54;4.50;;;4.20;;
32082;SDS011;18597;48.328;7.932;2023-09-07T12:57:19;4.70;;;4.30;;
32082;SDS011;18597;48.328;7.932;2023-09-07T12:59:45;4.67;;;4.37;;
32082;SDS011;18597;48.328;7.932;2023-09-07T13:02:11;5.77;;;5.27;;
32082;SDS011;18597;48.328;7.932;2023-09-07T13:04:37;4.90;;;4.60;;
32082;SDS011;18597;48.328;7.932;2023-09-07T13:07:03;5.00;;;4.53;;
32082;SDS011;18597;48.328;7.932;2023-09-07T13:09:28;4.23;;;3.90;;
32082;SDS011;18597;48.328;7.932;2023-09-07T13:11:54;4.03;;;3.93;;
32082;SDS011;18597;48.328;7.932;2023-09-07T13:14:20;4.50;;;4.20;;
32082;SDS011;18597;48.328;7.932;2023-09-07T13:16:46;4.80;;;4.37;;
32082;SDS011;18597;48.328;7.932;2023-09-07T13:19:12;5.77;;;4.30;;
32082;SDS011;18597;48.328;7.932;2023-09-07T13:21:37;4.20;;;3.90;;
32082;SDS011;18597;48.328;7.932;2023-09-07T13:24:03;5.40;;;5.00;;
32082;SDS011;18597;48.328;7.932;2023-09-07T13:26:29;4.83;;;4.53;;
32082;SDS011;18597;48.328;7.932;2023-09-07T13:28:55;4.53;;;4.33;;
32082;SDS011;18597;48.328;7.932;2023-09-07T13:31:21;3.67;;;3.57;;
32082;SDS011;18597;48.328;7.932;2023-09-07T13:33:47;5.83;;;5.43;;
32082;SDS011;18597;48.328;7.932;2023-09-07T13:36:14;3.87;;;3.53;;
32082;SDS011;18597;48.328;7.932;2023-09-07T13:38:40;3.93;;;3.63;;
32082;SDS011;18597;48.328;7.932;2023-09-07T13:41:06;4.17;;;3.90;;
32082;SDS011;18597;48.328;7.932;2023-09-07T13:43:32;4.10;;;4.00;;
32082;SDS011;18597;48.328;7.932;2023-09-07T13:45:58;4.47;;;4.17;;
32082;SDS011;18597;48.328;7.932;2023-09-07T13:48:23;5.83;;;4.20;;
32082;SDS011;18597;48.328;7.932;2023-09-07T13:50:49;3.73;;;3.47;;
32082;SDS011;18597;48.328;7.932;2023-09-07T13:53:15;4.53;;;4.30;;
32082;SDS011;18597;48.328;7.932;2023-09-07T13:55:41;5.17;;;4.80;;
32082;SDS011;18597;48.328;7.932;2023-09-07T13:58:09;4.67;;;4.37;;
32082;SDS011;18597;48.328;7.932;2023-09-07T14:00:35;4.43;;;4.03;;
32082;SDS011;18597;48.328;7.932;2023-09-07T14:03:00;4.37;;;4.17;;
32082;SDS011;18597;48.328;7.932;2023-09-07T14:05:26;4.83;;;4.27;;
32082;SDS011;18597;48.328;7.932;2023-09-07T14:07:52;4.03;;;3.83;;
32082;SDS011;18597;48.328;7.932;2023-09-07T14:10:18;4.07;;;3.77;;
32082;SDS011;18597;48.328;7.932;2023-09-07T14:12:44;4.50;;;3.90;;
32082;SDS011;18597;48.328;7.932;2023-09-07T14:15:13;4.40;;;4.00;;
32082;SDS011;18597;48.328;7.932;2023-09-07T14:17:39;6.17;;;4.23;;
32082;SDS011;18597;48.328;7.932;2023-09-07T14:20:05;5.23;;;4.00;;
32082;SDS011;18597;48.328;7.932;2023-09-07T14:22:31;5.53;;;4.70;;
32082;SDS011;18597;48.328;7.932;2023-09-07T14:24:57;3.83;;;3.60;;
32082;SDS011;18597;48.328;7.932;2023-09-07T14:27:23;4.10;;;3.90;;
32082;SDS011;18597;48.328;7.932;2023-09-07T14:29:51;4.27;;;4.17;;
32082;SDS011;18597;48.328;7.932;2023-09-07T14:32:16;4.43;;;4.00;;
32082;SDS011;18597;48.328;7.932;2023-09-07T14:34:42;4.20;;;4.00;;
32082;SDS011;18597;48.328;7.932;2023-09-07T14:37:08;5.90;;;3.67;;
32082;SDS011;18597;48.328;7.932;2023-09-07T14:39:34;3.67;;;3.47;;
32082;SDS011;18597;48.328;7.932;2023-09-07T14:42:00;4.33;;;3.80;;
32082;SDS011;18597;48.328;7.932;2023-09-07T14:44:26;4.63;;;4.20;;